Sea Island, Georgia
Current Conditions -  °F | °C
As of 6:53 AM on Tuesday 21 Oct 2014 (Local Time) from KSSI Reporting Station
Clear Clear  
Wind Chill: 62°   Ceiling: Unl
Heat Index: 62°   Visibility: 10mi
Dew Point: 62°   Wind: 5mph
Humidity: 100%   Direction: 330°NNW
Pressure: 29.95"   Gusts: NA
Location:  31.18°N, 81.35°W
Report Text: KSSI 211053Z AUTO 33004KT 10SM CLR 17/17 A2995 RMK AO2 SLP143 T01670167
Loading
Personal Weather Stations






























Interactive Weather Map
Tropical Storm Tracking
New forecast layout! Learn more

10-Day Weather Forecast

Advertisements
Track Severe Weather on mobile